createdAt,value
2022-10-11T00:04:08.561Z,12.60
2022-10-11T00:06:39.135Z,14.20
2022-10-11T00:09:09.097Z,15.50
2022-10-11T00:11:40.189Z,12.60
2022-10-11T00:14:11.385Z,14.40
2022-10-11T00:16:45.019Z,16.10
2022-10-11T00:19:14.753Z,14.10
2022-10-11T00:21:45.295Z,12.20
2022-10-11T00:24:16.706Z,13.30
2022-10-11T00:26:47.107Z,11.90
2022-10-11T00:29:17.349Z,10.80
2022-10-11T00:31:47.136Z,10.40
2022-10-11T00:34:19.392Z,13.80
2022-10-11T00:36:49.282Z,11.10
2022-10-11T00:39:20.325Z,12.20
2022-10-11T00:41:52.261Z,11.80
2022-10-11T00:44:27.338Z,11.90
2022-10-11T00:47:10.016Z,12.10
2022-10-11T00:49:46.548Z,11.70
2022-10-11T00:52:35.520Z,11.20
2022-10-11T00:55:13.458Z,11.40
2022-10-11T00:57:48.386Z,11.80
2022-10-11T01:00:20.273Z,14.50
2022-10-11T01:02:52.258Z,11.60
2022-10-11T01:05:29.667Z,12.30
2022-10-11T01:08:01.935Z,11.00
2022-10-11T01:10:33.017Z,10.00
2022-10-11T01:13:37.683Z,12.10
2022-10-11T01:16:17.384Z,15.80
2022-10-11T01:19:14.528Z,15.70
2022-10-11T01:21:53.521Z,16.50
2022-10-11T01:24:58.224Z,15.80
2022-10-11T01:27:33.233Z,12.10
2022-10-11T01:30:24.254Z,12.80
2022-10-11T01:33:14.919Z,11.60
2022-10-11T01:36:30.526Z,11.60
2022-10-11T01:39:17.307Z,12.70
2022-10-11T01:41:52.432Z,10.70
2022-10-11T01:44:25.647Z,10.30
2022-10-11T01:46:55.366Z,12.70
2022-10-11T01:49:25.107Z,14.70
2022-10-11T01:51:57.393Z,14.80
2022-10-11T01:54:56.548Z,12.20
2022-10-11T01:57:59.787Z,14.30
2022-10-11T02:00:42.342Z,12.30
2022-10-11T02:03:35.218Z,11.20
2022-10-11T02:06:09.199Z,11.60
2022-10-11T02:08:43.129Z,12.20
2022-10-11T02:11:29.447Z,11.50
2022-10-11T02:14:05.495Z,12.90
2022-10-11T02:16:49.186Z,14.00
2022-10-11T02:19:21.319Z,14.50
2022-10-11T02:21:57.808Z,14.20
2022-10-11T02:24:34.348Z,10.60
2022-10-11T02:27:06.659Z,12.70
2022-10-11T02:29:40.371Z,11.50
2022-10-11T02:32:12.194Z,13.10
2022-10-11T02:34:47.611Z,10.90
2022-10-11T02:37:36.938Z,10.40
2022-10-11T02:40:28.512Z,11.00
2022-10-11T02:43:04.185Z,10.80
2022-10-11T02:45:40.206Z,10.90
2022-10-11T02:48:11.911Z,8.60
2022-10-11T02:50:42.020Z,9.80
2022-10-11T02:55:40.121Z,10.30
2022-10-11T02:58:09.574Z,10.20
2022-10-11T03:00:38.398Z,10.00
2022-10-11T03:03:08.887Z,10.40
2022-10-11T03:05:42.184Z,11.20
2022-10-11T03:08:14.428Z,10.80
2022-10-11T03:10:44.206Z,10.90
2022-10-11T03:13:17.865Z,11.40
2022-10-11T03:16:02.341Z,10.20
2022-10-11T03:18:33.172Z,11.70
2022-10-11T03:21:04.840Z,11.00
2022-10-11T03:23:34.798Z,10.60
2022-10-11T03:26:05.002Z,10.80
2022-10-11T03:28:34.270Z,10.80
2022-10-11T03:31:04.040Z,12.40
2022-10-11T03:33:33.363Z,11.50
2022-10-11T03:36:03.561Z,12.30
2022-10-11T03:38:33.121Z,10.90
2022-10-11T03:41:03.032Z,10.00
2022-10-11T03:43:32.451Z,9.60
2022-10-11T03:46:02.165Z,8.90
2022-10-11T03:50:59.875Z,8.50
2022-10-11T03:53:28.745Z,10.80
2022-10-11T03:55:58.092Z,10.70
2022-10-11T03:58:27.593Z,10.00
2022-10-11T04:00:56.571Z,9.50
2022-10-11T04:03:25.114Z,9.60
2022-10-11T04:05:53.682Z,11.00
2022-10-11T04:08:22.566Z,11.90
2022-10-11T04:10:51.916Z,8.60
2022-10-11T04:13:21.257Z,12.40
2022-10-11T04:15:50.072Z,11.60
2022-10-11T04:18:18.868Z,13.20
2022-10-11T04:20:47.756Z,12.50
2022-10-11T04:23:16.971Z,13.60
2022-10-11T04:25:46.041Z,9.80
2022-10-11T04:28:15.629Z,13.70
2022-10-11T04:30:44.693Z,12.50
2022-10-11T04:33:13.340Z,9.70
2022-10-11T04:35:42.033Z,11.40
2022-10-11T04:38:10.928Z,11.60
2022-10-11T04:40:40.432Z,10.40
2022-10-11T04:43:09.414Z,10.00
2022-10-11T04:45:39.335Z,10.10
2022-10-11T04:48:08.642Z,9.50
2022-10-11T04:50:38.147Z,9.40
2022-10-11T04:53:10.419Z,12.30
2022-10-11T04:55:39.666Z,11.70
2022-10-11T04:58:08.242Z,11.20
2022-10-11T05:00:40.992Z,11.50
2022-10-11T05:03:12.455Z,10.00
2022-10-11T05:05:41.731Z,10.00
2022-10-11T05:08:10.826Z,11.80
2022-10-11T05:10:39.718Z,9.00
2022-10-11T05:13:08.673Z,10.30
2022-10-11T05:15:37.601Z,10.60
2022-10-11T05:18:07.709Z,11.10
2022-10-11T05:20:36.898Z,10.70
2022-10-11T05:23:05.923Z,11.00
2022-10-11T05:25:35.702Z,11.10
2022-10-11T05:28:04.602Z,11.00
2022-10-11T05:30:33.716Z,9.90
2022-10-11T05:33:02.995Z,8.90
2022-10-11T05:35:31.559Z,9.10
2022-10-11T05:38:00.157Z,9.70
2022-10-11T05:40:29.407Z,15.80
2022-10-11T05:42:58.061Z,15.70
2022-10-11T05:45:26.957Z,15.80
2022-10-11T05:47:56.024Z,15.00
2022-10-11T05:50:24.871Z,17.10
2022-10-11T05:52:53.453Z,14.30
2022-10-11T05:55:22.084Z,15.30
2022-10-11T05:57:56.595Z,12.60
2022-10-11T06:00:26.559Z,14.70
2022-10-11T06:02:55.925Z,13.20
2022-10-11T06:05:25.220Z,14.90
2022-10-11T06:07:54.901Z,14.50
2022-10-11T06:10:24.386Z,11.70
2022-10-11T06:12:53.434Z,10.70
2022-10-11T06:15:22.222Z,12.10
2022-10-11T06:17:53.160Z,15.60
2022-10-11T06:20:21.641Z,18.00
2022-10-11T06:22:50.431Z,17.00
2022-10-11T06:25:19.009Z,17.50
2022-10-11T06:27:47.657Z,18.50
2022-10-11T06:30:17.171Z,15.50
2022-10-11T06:32:45.988Z,14.20
2022-10-11T06:35:15.290Z,12.90
2022-10-11T06:37:44.182Z,12.40
2022-10-11T06:40:13.368Z,12.40
2022-10-11T06:42:42.051Z,11.30
2022-10-11T06:45:10.950Z,15.50
2022-10-11T06:47:39.946Z,13.30
2022-10-11T06:50:09.183Z,13.70
2022-10-11T06:52:37.929Z,12.00
2022-10-11T06:55:07.700Z,12.70
2022-10-11T06:57:36.433Z,12.70
2022-10-11T07:00:10.319Z,12.60
2022-10-11T07:02:41.556Z,13.10
2022-10-11T07:05:10.981Z,12.50
2022-10-11T07:07:40.079Z,10.80
2022-10-11T07:10:09.540Z,11.80
2022-10-11T07:12:38.161Z,12.10
2022-10-11T07:15:07.527Z,10.80
2022-10-11T07:17:36.126Z,11.60
2022-10-11T07:20:07.024Z,11.30
2022-10-11T07:22:36.182Z,10.40
2022-10-11T07:25:05.442Z,9.30
2022-10-11T07:27:34.172Z,10.30
2022-10-11T07:30:02.964Z,9.70
2022-10-11T07:32:31.947Z,10.00
2022-10-11T07:35:01.258Z,8.30
2022-10-11T07:37:30.022Z,10.00
2022-10-11T07:39:58.925Z,9.00
2022-10-11T07:42:27.919Z,8.80
2022-10-11T07:44:56.602Z,8.20
2022-10-11T07:47:25.219Z,8.00
2022-10-11T07:49:56.704Z,8.30
2022-10-11T07:52:27.980Z,8.40
2022-10-11T07:54:57.391Z,8.30
2022-10-11T07:57:25.974Z,7.80
2022-10-11T07:59:55.169Z,7.80
2022-10-11T08:02:24.109Z,7.60
2022-10-11T08:04:53.266Z,7.60
2022-10-11T08:07:25.723Z,7.70
2022-10-11T08:09:54.520Z,7.60
2022-10-11T08:12:23.490Z,7.90
2022-10-11T08:15:00.421Z,9.10
2022-10-11T08:17:31.438Z,8.60
2022-10-11T08:20:00.296Z,7.50
2022-10-11T08:22:29.042Z,8.20
2022-10-11T08:24:57.824Z,8.00
2022-10-11T08:27:26.677Z,8.80
2022-10-11T08:29:55.470Z,7.80
2022-10-11T08:32:24.002Z,8.30
2022-10-11T08:34:53.249Z,8.50
2022-10-11T08:37:21.940Z,7.90
2022-10-11T08:39:50.634Z,7.30
2022-10-11T08:42:35.843Z,7.50
2022-10-11T08:45:11.842Z,6.70
2022-10-11T08:47:44.637Z,6.90
2022-10-11T08:50:20.242Z,6.70
2022-10-11T08:52:54.374Z,6.80
2022-10-11T08:55:32.604Z,6.80
2022-10-11T08:58:02.531Z,6.20
2022-10-11T09:00:34.430Z,6.60
2022-10-11T09:03:22.315Z,6.80
2022-10-11T09:06:21.706Z,6.40
2022-10-11T09:09:06.594Z,5.60
2022-10-11T09:11:47.871Z,7.00
2022-10-11T09:14:31.469Z,6.30
2022-10-11T09:17:26.398Z,6.00
2022-10-11T09:20:03.895Z,6.00
2022-10-11T09:22:49.168Z,6.50
2022-10-11T09:25:52.877Z,6.20
2022-10-11T09:28:47.895Z,6.10
2022-10-11T09:31:17.279Z,6.80
2022-10-11T09:33:50.485Z,6.10
2022-10-11T09:36:38.181Z,7.20
2022-10-11T09:39:48.708Z,5.90
2022-10-11T09:42:17.502Z,6.50
2022-10-11T09:44:55.651Z,6.00
2022-10-11T09:47:29.393Z,6.80
2022-10-11T09:50:01.915Z,6.90
2022-10-11T09:52:31.364Z,5.60
2022-10-11T09:55:02.078Z,7.20
2022-10-11T09:57:37.801Z,6.00
2022-10-11T10:00:27.490Z,7.00
2022-10-11T10:03:01.872Z,7.40
2022-10-11T10:05:37.226Z,6.00
2022-10-11T10:08:23.067Z,7.20
2022-10-11T10:11:04.568Z,7.10
2022-10-11T10:13:45.736Z,9.40
2022-10-11T10:16:29.941Z,10.60
2022-10-11T10:19:02.366Z,9.10
2022-10-11T10:21:43.719Z,8.80
2022-10-11T10:24:36.883Z,9.50
2022-10-11T10:27:11.401Z,10.50
2022-10-11T10:29:41.275Z,9.50
2022-10-11T10:32:14.916Z,11.00
2022-10-11T10:35:03.235Z,11.10
2022-10-11T10:38:06.971Z,11.10
2022-10-11T10:40:41.507Z,12.00
2022-10-11T10:43:15.871Z,10.90
2022-10-11T10:46:09.217Z,10.10
2022-10-11T10:52:28.672Z,13.00
2022-10-11T10:55:08.032Z,12.80
2022-10-11T10:57:39.313Z,13.60
2022-10-11T11:00:14.071Z,13.40
2022-10-11T11:02:55.474Z,12.20
2022-10-11T11:05:55.795Z,12.20
2022-10-11T11:08:52.057Z,13.50
2022-10-11T11:11:44.054Z,11.30
2022-10-11T11:15:03.130Z,11.70
2022-10-11T11:17:42.154Z,11.30
2022-10-11T11:20:47.704Z,10.20
2022-10-11T11:23:34.517Z,10.10
2022-10-11T11:26:03.901Z,10.70
2022-10-11T11:28:38.627Z,11.10
2022-10-11T11:31:41.320Z,10.30
2022-10-11T11:34:25.051Z,9.50
2022-10-11T11:36:56.821Z,7.80
2022-10-11T11:39:36.565Z,11.60
2022-10-11T11:44:47.353Z,8.20
2022-10-11T11:47:34.367Z,7.50
2022-10-11T11:50:28.656Z,9.20
2022-10-11T11:53:05.553Z,8.70
2022-10-11T11:55:43.763Z,9.50
2022-10-11T11:58:37.203Z,8.40
2022-10-11T12:01:34.051Z,7.90
2022-10-11T12:04:35.198Z,9.10
2022-10-11T12:07:16.328Z,8.60
2022-10-11T12:09:52.342Z,8.90
2022-10-11T12:12:38.448Z,8.20
2022-10-11T12:15:10.481Z,9.00
2022-10-11T12:18:02.335Z,8.60
2022-10-11T12:20:41.057Z,9.00
2022-10-11T12:23:35.242Z,6.80
2022-10-11T12:26:42.955Z,8.20
2022-10-11T12:29:17.593Z,7.80
2022-10-11T12:31:49.771Z,7.60
2022-10-11T12:37:31.936Z,6.20
2022-10-11T12:40:01.143Z,6.40
2022-10-11T12:42:33.502Z,6.20
2022-10-11T12:45:22.236Z,7.50
2022-10-11T12:48:07.951Z,5.70
2022-10-11T12:50:44.410Z,6.60
2022-10-11T12:54:07.944Z,6.60
2022-10-11T12:56:48.546Z,5.70
2022-10-11T12:59:21.437Z,6.80
2022-10-11T13:01:54.413Z,6.50
2022-10-11T13:04:27.187Z,6.60
2022-10-11T13:07:06.876Z,6.60
2022-10-11T13:09:45.342Z,6.30
2022-10-11T13:12:21.951Z,7.30
2022-10-11T13:15:10.237Z,6.90
2022-10-11T13:17:40.106Z,5.90
2022-10-11T13:20:18.506Z,6.10
2022-10-11T13:22:50.336Z,4.70
2022-10-11T13:25:37.887Z,7.10
2022-10-11T13:28:09.685Z,7.00
2022-10-11T13:30:44.375Z,6.40
2022-10-11T13:33:35.915Z,7.10
2022-10-11T13:36:09.150Z,6.20
2022-10-11T13:38:37.773Z,6.70
2022-10-11T13:41:10.324Z,6.80
2022-10-11T13:43:41.108Z,7.00
2022-10-11T13:46:19.826Z,6.10
2022-10-11T13:48:58.446Z,6.90
2022-10-11T13:51:34.912Z,9.90
2022-10-11T13:54:11.703Z,9.90
2022-10-11T13:56:50.282Z,8.80
2022-10-11T13:59:22.950Z,8.50
2022-10-11T14:01:59.034Z,8.30
2022-10-11T14:04:29.881Z,8.40
2022-10-11T14:07:02.813Z,9.10
2022-10-11T14:09:39.107Z,7.60
2022-10-11T14:12:31.174Z,6.40
2022-10-11T14:15:01.782Z,6.40
2022-10-11T14:17:40.739Z,6.20
2022-10-11T14:20:13.838Z,6.60
2022-10-11T14:22:42.794Z,6.20
2022-10-11T14:25:12.163Z,5.50
2022-10-11T14:30:26.494Z,7.20
2022-10-11T14:32:59.745Z,7.30
2022-10-11T14:35:35.378Z,7.10
2022-10-11T14:38:04.181Z,8.50
2022-10-11T14:40:35.372Z,7.50
2022-10-11T14:43:06.010Z,7.40
2022-10-11T14:45:37.019Z,8.00
2022-10-11T14:48:10.592Z,7.20
2022-10-11T14:50:53.046Z,7.70
2022-10-11T14:53:22.709Z,6.20
2022-10-11T14:55:52.244Z,6.80
2022-10-11T14:58:20.800Z,8.00
2022-10-11T15:00:49.478Z,8.10
2022-10-11T15:03:18.070Z,7.00
2022-10-11T15:05:46.529Z,7.70
2022-10-11T15:08:15.378Z,7.60
2022-10-11T15:10:43.916Z,7.00
2022-10-11T15:13:12.582Z,8.80
2022-10-11T15:15:41.902Z,8.80
2022-10-11T15:18:13.831Z,9.90
2022-10-11T15:20:45.266Z,9.00
2022-10-11T15:23:14.191Z,8.50
2022-10-11T15:25:43.200Z,8.20
2022-10-11T15:28:29.686Z,8.90
2022-10-11T15:31:00.909Z,8.20
2022-10-11T15:33:29.461Z,8.50
2022-10-11T15:35:58.006Z,9.90
2022-10-11T15:38:26.691Z,9.80
2022-10-11T15:40:55.585Z,9.60
2022-10-11T15:43:25.179Z,10.60
2022-10-11T15:45:55.775Z,10.50
2022-10-11T15:50:55.664Z,11.40
2022-10-11T15:53:31.388Z,13.60
2022-10-11T15:56:08.745Z,12.10
2022-10-11T15:58:40.212Z,14.10
2022-10-11T16:01:15.296Z,12.70
2022-10-11T16:03:45.294Z,14.50
2022-10-11T16:08:42.728Z,15.90
2022-10-11T16:11:12.263Z,15.90
2022-10-11T16:13:41.372Z,14.00
2022-10-11T16:16:10.453Z,15.90
2022-10-11T16:18:39.973Z,16.50
2022-10-11T16:21:11.274Z,14.50
2022-10-11T16:23:39.740Z,14.90
2022-10-11T16:26:12.266Z,14.00
2022-10-11T16:28:42.280Z,16.70
2022-10-11T16:33:46.203Z,15.30
2022-10-11T16:36:40.827Z,16.40
2022-10-11T16:39:19.665Z,16.70
2022-10-11T16:41:48.212Z,17.00
2022-10-11T16:44:20.247Z,14.60
2022-10-11T16:46:49.296Z,16.10
2022-10-11T16:49:20.414Z,23.10
2022-10-11T16:51:50.370Z,25.20
2022-10-11T16:54:20.811Z,21.90
2022-10-11T16:56:50.366Z,25.10
2022-10-11T16:59:19.128Z,22.70
2022-10-11T17:01:47.934Z,18.60
2022-10-11T17:04:16.414Z,18.90
2022-10-11T17:06:45.199Z,20.60
2022-10-11T17:09:14.043Z,16.10
2022-10-11T17:11:45.353Z,20.70
2022-10-11T17:14:14.129Z,26.70
2022-10-11T17:16:43.116Z,29.40
2022-10-11T17:19:14.146Z,29.00
2022-10-11T17:21:43.040Z,23.80
2022-10-11T17:24:11.348Z,24.30
2022-10-11T17:26:39.908Z,24.00
2022-10-11T17:29:13.137Z,22.30
2022-10-11T17:31:48.090Z,22.30
2022-10-11T17:34:18.148Z,23.00
2022-10-11T17:36:47.204Z,25.30
2022-10-11T17:39:19.516Z,23.60
2022-10-11T17:41:48.792Z,27.70
2022-10-11T17:44:20.079Z,22.60
2022-10-11T17:46:49.305Z,20.30
2022-10-11T17:49:17.993Z,22.60
2022-10-11T17:51:46.595Z,19.70
2022-10-11T17:54:14.925Z,20.30
2022-10-11T17:56:43.389Z,20.60
2022-10-11T17:59:17.243Z,24.60
2022-10-11T18:01:48.441Z,22.90
2022-10-11T18:04:21.621Z,19.60
2022-10-11T18:06:49.935Z,24.70
2022-10-11T18:09:19.558Z,25.90
2022-10-11T18:11:50.963Z,25.00
2022-10-11T18:14:19.542Z,26.00
2022-10-11T18:16:48.153Z,26.90
2022-10-11T18:19:16.846Z,26.80
2022-10-11T18:21:48.137Z,25.30
2022-10-11T18:24:20.160Z,25.00
2022-10-11T18:26:48.753Z,22.90
2022-10-11T18:29:17.232Z,24.50
2022-10-11T18:31:49.761Z,27.40
2022-10-11T18:34:19.345Z,29.60
2022-10-11T18:36:48.361Z,37.80
2022-10-11T18:39:16.867Z,40.60
2022-10-11T18:41:45.326Z,40.30
2022-10-11T18:44:15.649Z,37.90
2022-10-11T18:46:44.949Z,31.60
2022-10-11T18:49:14.253Z,28.00
2022-10-11T18:51:43.171Z,25.90
2022-10-11T18:54:16.721Z,21.70
2022-10-11T18:56:48.873Z,24.60
2022-10-11T18:59:17.680Z,28.90
2022-10-11T19:01:46.739Z,25.60
2022-10-11T19:04:16.307Z,23.70
2022-10-11T19:06:50.831Z,29.10
2022-10-11T19:09:24.637Z,25.90
2022-10-11T19:11:55.339Z,20.40
2022-10-11T19:14:26.625Z,23.50
2022-10-11T19:16:56.522Z,23.30
2022-10-11T19:19:29.994Z,24.50
2022-10-11T19:21:59.711Z,21.80
2022-10-11T19:24:30.260Z,17.70
2022-10-11T19:27:02.532Z,18.50
2022-10-11T19:29:32.622Z,20.10
2022-10-11T19:32:03.847Z,23.50
2022-10-11T19:34:33.166Z,22.20
2022-10-11T19:37:03.684Z,24.10
2022-10-11T19:39:32.496Z,19.80
2022-10-11T19:42:01.519Z,19.30
2022-10-11T19:44:32.519Z,16.50
2022-10-11T19:47:05.411Z,25.20
2022-10-11T19:49:34.058Z,23.40
2022-10-11T19:52:02.717Z,32.10
2022-10-11T19:54:32.131Z,32.10
2022-10-11T19:57:00.622Z,26.10
2022-10-11T19:59:29.102Z,28.20
2022-10-11T20:01:57.629Z,26.70
2022-10-11T20:07:14.846Z,26.40
2022-10-11T20:09:43.609Z,27.00
2022-10-11T20:12:12.458Z,25.50
2022-10-11T20:14:41.079Z,26.00
2022-10-11T20:17:09.650Z,25.50
2022-10-11T20:19:38.347Z,23.90
2022-10-11T20:22:07.298Z,20.90
2022-10-11T20:24:35.709Z,22.20
2022-10-11T20:27:05.816Z,24.20
2022-10-11T20:29:34.845Z,22.50
2022-10-11T20:32:03.380Z,20.80
2022-10-11T20:34:32.268Z,19.70
2022-10-11T20:37:00.659Z,19.80
2022-10-11T20:39:29.303Z,20.80
2022-10-11T20:41:57.928Z,23.60
2022-10-11T20:44:26.628Z,26.30
2022-10-11T20:46:56.193Z,25.20
2022-10-11T20:49:26.215Z,24.30
2022-10-11T20:51:54.776Z,21.60
2022-10-11T20:54:23.311Z,33.60
2022-10-11T20:56:51.965Z,32.10
2022-10-11T20:59:20.920Z,28.70
2022-10-11T21:01:50.216Z,25.80
2022-10-11T21:04:20.922Z,21.80
2022-10-11T21:06:50.072Z,23.40
2022-10-11T21:09:19.393Z,32.80
2022-10-11T21:11:48.112Z,33.60
2022-10-11T21:14:16.960Z,35.40
2022-10-11T21:16:45.956Z,36.40
2022-10-11T21:19:15.967Z,28.70
2022-10-11T21:21:51.167Z,23.10
2022-10-11T21:24:22.679Z,24.10
2022-10-11T21:26:56.947Z,22.80
2022-10-11T21:29:28.836Z,26.10
2022-10-11T21:31:57.333Z,24.90
2022-10-11T21:34:25.771Z,25.50
2022-10-11T21:36:54.906Z,25.90
2022-10-11T21:39:23.729Z,22.50
2022-10-11T21:41:52.475Z,24.30
2022-10-11T21:44:21.073Z,31.60
2022-10-11T21:49:38.918Z,26.10
2022-10-11T21:52:08.223Z,27.50
2022-10-11T21:54:38.047Z,29.10
2022-10-11T21:57:06.909Z,27.60
2022-10-11T21:59:36.435Z,30.70
2022-10-11T22:02:06.428Z,31.30
2022-10-11T22:04:35.270Z,23.30
2022-10-11T22:07:04.145Z,24.50
2022-10-11T22:09:35.376Z,28.80
2022-10-11T22:12:05.412Z,23.30
2022-10-11T22:14:34.187Z,26.60
2022-10-11T22:17:02.969Z,28.30
2022-10-11T22:19:32.339Z,26.70
2022-10-11T22:22:01.936Z,26.70
2022-10-11T22:24:31.175Z,27.20
2022-10-11T22:27:00.779Z,28.60
2022-10-11T22:29:34.030Z,26.30
2022-10-11T22:32:04.796Z,25.50
2022-10-11T22:34:34.485Z,28.80
2022-10-11T22:37:03.751Z,27.30
2022-10-11T22:39:34.365Z,27.70
2022-10-11T22:44:34.299Z,22.40
2022-10-11T22:49:34.407Z,22.50
2022-10-11T22:52:03.521Z,20.70
2022-10-11T22:54:33.047Z,18.70
2022-10-11T22:57:02.703Z,19.40
2022-10-11T22:59:33.693Z,19.90
2022-10-11T23:02:04.268Z,19.20
2022-10-11T23:04:33.947Z,21.90
2022-10-11T23:07:05.154Z,16.50
2022-10-11T23:09:35.193Z,21.00
2022-10-11T23:12:05.058Z,25.50
2022-10-11T23:14:34.081Z,23.60
2022-10-11T23:17:03.056Z,25.10
2022-10-11T23:19:32.137Z,22.40
2022-10-11T23:22:01.153Z,21.50
2022-10-11T23:24:31.232Z,22.60
2022-10-11T23:27:01.393Z,23.70
2022-10-11T23:29:32.469Z,23.80
2022-10-11T23:34:30.523Z,21.90
2022-10-11T23:37:00.120Z,18.90
2022-10-11T23:39:30.618Z,20.70
2022-10-11T23:42:01.379Z,23.80
2022-10-11T23:44:30.783Z,24.30
2022-10-11T23:47:00.841Z,26.00
2022-10-11T23:49:31.612Z,22.00
2022-10-11T23:52:01.909Z,22.60
2022-10-11T23:54:31.130Z,21.30
2022-10-11T23:57:00.983Z,20.00
2022-10-11T23:59:29.697Z,15.30
